createdAt,value
2022-12-31T00:00:29.487Z,30.00
2022-12-31T00:02:56.970Z,26.77
2022-12-31T00:05:27.516Z,29.88
2022-12-31T00:07:54.318Z,29.77
2022-12-31T00:10:24.539Z,29.92
2022-12-31T00:12:54.086Z,29.50
2022-12-31T00:15:23.337Z,29.55
2022-12-31T00:17:50.280Z,26.90
2022-12-31T00:20:17.757Z,26.73
2022-12-31T00:22:47.935Z,28.45
2022-12-31T00:25:21.257Z,23.88
2022-12-31T00:27:52.813Z,24.95
2022-12-31T00:30:20.983Z,23.63
2022-12-31T00:33:00.388Z,24.92
2022-12-31T00:35:31.518Z,24.50
2022-12-31T00:37:58.379Z,23.98
2022-12-31T00:40:25.520Z,25.15
2022-12-31T00:43:02.749Z,25.15
2022-12-31T00:45:34.563Z,22.40
2022-12-31T00:48:04.523Z,23.52
2022-12-31T00:50:34.371Z,22.60
2022-12-31T00:53:04.814Z,22.13
2022-12-31T00:55:31.678Z,20.92
2022-12-31T00:58:04.415Z,21.75
2022-12-31T01:00:40.874Z,22.30
2022-12-31T01:03:15.140Z,24.85
2022-12-31T01:05:43.993Z,23.63
2022-12-31T01:08:13.851Z,21.50
2022-12-31T01:11:13.971Z,26.17
2022-12-31T01:13:46.398Z,25.45
2022-12-31T01:16:17.657Z,22.65
2022-12-31T01:18:53.800Z,27.10
2022-12-31T01:21:23.742Z,27.88
2022-12-31T01:23:50.782Z,25.85
2022-12-31T01:26:26.899Z,22.60
2022-12-31T01:29:03.013Z,26.05
2022-12-31T01:31:33.463Z,25.17
2022-12-31T01:34:08.357Z,25.92
2022-12-31T01:36:36.927Z,21.88
2022-12-31T01:39:06.253Z,26.00
2022-12-31T01:41:42.732Z,28.77
2022-12-31T01:44:25.010Z,22.85
2022-12-31T01:47:01.028Z,22.50
2022-12-31T01:49:45.834Z,23.27
2022-12-31T01:52:32.096Z,26.77
2022-12-31T01:55:13.623Z,27.58
2022-12-31T01:57:44.333Z,31.88
2022-12-31T02:00:14.913Z,30.73
2022-12-31T02:02:58.812Z,31.63
2022-12-31T02:05:40.866Z,27.48
2022-12-31T02:08:22.857Z,26.15
2022-12-31T02:10:52.843Z,30.42
2022-12-31T02:13:19.846Z,28.42
2022-12-31T02:16:24.876Z,29.52
2022-12-31T02:19:17.132Z,30.98
2022-12-31T02:22:01.188Z,31.75
2022-12-31T02:24:47.730Z,28.95
2022-12-31T02:27:41.066Z,25.15
2022-12-31T02:30:14.587Z,33.08
2022-12-31T02:33:24.603Z,26.48
2022-12-31T02:36:03.449Z,34.85
2022-12-31T02:38:34.774Z,34.65
2022-12-31T02:41:02.198Z,26.13
2022-12-31T02:43:29.216Z,27.65
2022-12-31T02:46:11.465Z,32.60
2022-12-31T02:49:06.605Z,29.33
2022-12-31T02:51:58.415Z,28.15
2022-12-31T02:54:48.616Z,29.77
2022-12-31T02:57:30.320Z,32.55
2022-12-31T03:00:31.004Z,34.05
2022-12-31T03:03:00.035Z,30.27
2022-12-31T03:05:33.689Z,32.22
2022-12-31T03:08:04.929Z,32.22
2022-12-31T03:10:35.010Z,30.58
2022-12-31T03:13:02.806Z,33.13
2022-12-31T03:15:39.304Z,31.83
2022-12-31T03:18:16.912Z,32.72
2022-12-31T03:21:10.012Z,32.65
2022-12-31T03:24:05.293Z,32.92
2022-12-31T03:26:32.692Z,32.78
2022-12-31T03:29:00.324Z,32.03
2022-12-31T03:31:27.553Z,33.00
2022-12-31T03:33:59.053Z,34.70
2022-12-31T03:36:26.680Z,32.45
2022-12-31T03:38:57.136Z,31.98
2022-12-31T03:41:27.026Z,28.60
2022-12-31T03:43:56.877Z,29.58
2022-12-31T03:46:23.744Z,27.20
2022-12-31T03:48:53.091Z,27.63
2022-12-31T03:51:19.918Z,27.58
2022-12-31T03:53:46.726Z,31.08
2022-12-31T03:56:16.708Z,27.33
2022-12-31T03:58:46.535Z,30.73
2022-12-31T04:01:16.445Z,30.13
2022-12-31T04:03:52.092Z,29.33
2022-12-31T04:06:24.595Z,30.10
2022-12-31T04:11:25.044Z,26.92
2022-12-31T04:13:54.915Z,31.50
2022-12-31T04:16:22.338Z,29.33
2022-12-31T04:18:54.864Z,27.63
2022-12-31T04:24:03.102Z,26.88
2022-12-31T04:26:35.981Z,28.83
2022-12-31T04:29:02.898Z,30.95
2022-12-31T04:31:31.486Z,27.27
2022-12-31T04:33:59.579Z,26.00
2022-12-31T04:36:29.461Z,27.02
2022-12-31T04:39:02.413Z,24.13
2022-12-31T04:41:31.452Z,25.92
2022-12-31T04:43:59.756Z,24.00
2022-12-31T04:49:13.167Z,23.83
2022-12-31T04:51:44.896Z,26.30
2022-12-31T04:54:26.560Z,27.42
2022-12-31T04:57:02.414Z,23.77
2022-12-31T04:59:32.412Z,23.25
2022-12-31T05:02:01.889Z,25.52
2022-12-31T05:04:28.961Z,23.38
2022-12-31T05:06:58.687Z,24.27
2022-12-31T05:09:34.935Z,23.63
2022-12-31T05:12:01.823Z,22.90
2022-12-31T05:14:28.621Z,24.52
2022-12-31T05:17:04.537Z,24.27
2022-12-31T05:19:31.417Z,21.42
2022-12-31T05:22:21.526Z,21.85
2022-12-31T05:24:48.509Z,22.63
2022-12-31T05:27:15.303Z,22.95
2022-12-31T05:29:53.460Z,22.58
2022-12-31T05:32:23.201Z,23.15
2022-12-31T05:34:50.057Z,22.23
2022-12-31T05:37:16.898Z,21.88
2022-12-31T05:39:46.881Z,23.25
2022-12-31T05:42:16.214Z,21.90
2022-12-31T05:44:43.086Z,20.27
2022-12-31T05:47:10.037Z,21.77
2022-12-31T05:49:45.870Z,20.00
2022-12-31T05:52:12.806Z,20.58
2022-12-31T05:54:39.783Z,19.52
2022-12-31T05:57:08.955Z,19.15
2022-12-31T05:59:36.059Z,20.70
2022-12-31T06:02:02.924Z,19.55
2022-12-31T06:04:31.912Z,18.90
2022-12-31T06:07:01.914Z,19.08
2022-12-31T06:09:28.817Z,18.67
2022-12-31T06:11:55.820Z,17.83
2022-12-31T06:14:22.937Z,18.13
2022-12-31T06:16:51.329Z,17.92
2022-12-31T06:19:18.345Z,17.45
2022-12-31T06:21:45.410Z,17.83
2022-12-31T06:24:12.530Z,18.63
2022-12-31T06:26:39.470Z,18.58
2022-12-31T06:29:12.207Z,17.05
2022-12-31T06:31:41.225Z,18.25
2022-12-31T06:34:08.184Z,16.67
2022-12-31T06:36:39.721Z,17.08
2022-12-31T06:39:09.544Z,18.58
2022-12-31T06:41:36.562Z,18.42
2022-12-31T06:44:03.505Z,16.30
2022-12-31T06:46:30.288Z,18.15
2022-12-31T06:48:57.125Z,18.80
2022-12-31T06:51:25.540Z,16.40
2022-12-31T06:53:52.594Z,15.32
2022-12-31T06:56:33.027Z,15.95
2022-12-31T06:59:01.593Z,15.50
2022-12-31T07:01:36.774Z,19.40
2022-12-31T07:04:29.188Z,19.17
2022-12-31T07:07:17.435Z,16.98
2022-12-31T07:10:22.773Z,14.50
2022-12-31T07:13:23.778Z,17.25
2022-12-31T07:16:05.237Z,18.63
2022-12-31T07:18:43.553Z,17.25
2022-12-31T07:21:17.638Z,18.63
2022-12-31T07:23:47.521Z,18.85
2022-12-31T07:26:31.539Z,17.67
2022-12-31T07:29:15.064Z,19.13
2022-12-31T07:32:09.064Z,18.05
2022-12-31T07:35:04.021Z,18.88
2022-12-31T07:37:57.586Z,18.35
2022-12-31T07:40:57.814Z,16.73
2022-12-31T07:43:50.368Z,17.38
2022-12-31T07:46:43.648Z,17.48
2022-12-31T07:49:12.580Z,16.42
2022-12-31T07:51:46.280Z,16.40
2022-12-31T07:54:16.024Z,16.38
2022-12-31T07:56:44.455Z,15.05
2022-12-31T07:59:24.670Z,17.85
2022-12-31T08:02:03.403Z,17.70
2022-12-31T08:04:53.060Z,16.80
2022-12-31T08:07:57.131Z,17.00
2022-12-31T08:10:39.672Z,17.80
2022-12-31T08:13:10.988Z,18.75
2022-12-31T08:15:41.743Z,14.30
2022-12-31T08:18:17.656Z,15.63
2022-12-31T08:21:12.555Z,16.45
2022-12-31T08:23:48.524Z,18.80
2022-12-31T08:26:37.303Z,19.05
2022-12-31T08:29:22.832Z,19.40
2022-12-31T08:32:17.159Z,20.15
2022-12-31T08:34:55.965Z,18.20
2022-12-31T08:37:51.035Z,18.35
2022-12-31T08:40:45.517Z,18.48
2022-12-31T08:43:19.460Z,19.65
2022-12-31T08:45:51.759Z,18.65
2022-12-31T08:48:23.251Z,19.20
2022-12-31T08:50:50.279Z,15.00
2022-12-31T08:53:17.402Z,19.42
2022-12-31T08:55:46.506Z,20.30
2022-12-31T08:58:28.054Z,15.48
2022-12-31T09:00:59.489Z,19.90
2022-12-31T09:03:50.870Z,21.23
2022-12-31T09:06:41.318Z,24.02
2022-12-31T09:09:26.536Z,22.48
2022-12-31T09:12:36.410Z,19.90
2022-12-31T09:15:14.275Z,22.27
2022-12-31T09:17:52.524Z,18.90
2022-12-31T09:20:44.724Z,25.33
2022-12-31T09:23:13.038Z,25.45
2022-12-31T09:26:04.177Z,26.08
2022-12-31T09:28:43.445Z,28.70
2022-12-31T09:31:30.458Z,29.33
2022-12-31T09:34:09.882Z,24.50
2022-12-31T09:36:54.279Z,28.83
2022-12-31T09:39:46.882Z,29.13
2022-12-31T09:42:44.203Z,31.27
2022-12-31T09:45:38.344Z,30.77
2022-12-31T09:48:28.348Z,32.03
2022-12-31T09:51:25.502Z,25.60
2022-12-31T09:54:28.386Z,31.45
2022-12-31T09:57:18.459Z,25.15
2022-12-31T10:00:08.861Z,27.15
2022-12-31T10:02:49.685Z,28.55
2022-12-31T10:05:52.230Z,28.00
2022-12-31T10:08:51.390Z,29.60
2022-12-31T10:11:58.952Z,28.35
2022-12-31T10:15:25.161Z,29.95
2022-12-31T10:18:44.244Z,28.20
2022-12-31T10:21:47.449Z,25.67
2022-12-31T10:24:32.989Z,26.15
2022-12-31T10:27:27.851Z,28.48
2022-12-31T10:30:14.909Z,29.17
2022-12-31T10:33:02.525Z,29.25
2022-12-31T10:35:54.825Z,29.10
2022-12-31T10:38:58.015Z,28.65
2022-12-31T10:41:55.803Z,29.92
2022-12-31T10:44:46.966Z,31.38
2022-12-31T10:47:22.786Z,29.30
2022-12-31T10:50:34.558Z,27.05
2022-12-31T10:53:24.035Z,28.10
2022-12-31T10:56:25.950Z,27.05
2022-12-31T10:59:11.701Z,28.23
2022-12-31T11:02:16.148Z,28.52
2022-12-31T11:04:58.254Z,26.42
2022-12-31T11:07:44.087Z,28.35
2022-12-31T11:10:41.668Z,28.58
2022-12-31T11:13:34.024Z,25.52
2022-12-31T11:16:24.586Z,25.95
2022-12-31T11:19:06.418Z,24.63
2022-12-31T11:21:52.872Z,26.03
2022-12-31T11:24:24.992Z,27.20
2022-12-31T11:27:12.787Z,27.67
2022-12-31T11:30:03.497Z,27.83
2022-12-31T11:32:56.749Z,28.23
2022-12-31T11:35:43.714Z,27.50
2022-12-31T11:38:26.369Z,27.50
2022-12-31T11:41:31.558Z,27.17
2022-12-31T11:44:19.737Z,25.55
2022-12-31T11:47:02.421Z,26.23
2022-12-31T11:52:21.817Z,24.55
2022-12-31T11:57:36.515Z,27.48
2022-12-31T12:00:20.872Z,24.88
2022-12-31T12:03:05.278Z,23.20
2022-12-31T12:05:37.020Z,23.38
2022-12-31T12:08:22.540Z,23.92
2022-12-31T12:10:56.801Z,21.42
2022-12-31T12:13:27.548Z,23.10
2022-12-31T12:16:04.679Z,23.42
2022-12-31T12:18:38.945Z,21.95
2022-12-31T12:21:12.518Z,22.25
2022-12-31T12:23:40.763Z,21.95
2022-12-31T12:26:29.210Z,21.63
2022-12-31T12:29:17.524Z,21.25
2022-12-31T12:32:20.900Z,23.05
2022-12-31T12:34:58.585Z,24.67
2022-12-31T12:37:35.677Z,22.98
2022-12-31T12:40:09.616Z,23.95
2022-12-31T12:42:36.556Z,23.58
2022-12-31T12:45:09.688Z,24.30
2022-12-31T12:47:37.190Z,22.77
2022-12-31T12:50:05.325Z,22.55
2022-12-31T12:53:12.145Z,22.75
2022-12-31T12:56:23.302Z,26.70
2022-12-31T12:59:24.475Z,21.50
2022-12-31T13:02:08.814Z,25.58
2022-12-31T13:05:07.763Z,22.23
2022-12-31T13:08:04.328Z,26.23
2022-12-31T13:11:01.470Z,21.48
2022-12-31T13:14:00.254Z,22.75
2022-12-31T13:16:39.584Z,25.15
2022-12-31T13:19:23.103Z,24.27
2022-12-31T13:22:16.594Z,25.17
2022-12-31T13:25:31.029Z,25.95
2022-12-31T13:28:05.408Z,25.25
2022-12-31T13:30:43.463Z,24.08
2022-12-31T13:33:18.818Z,22.88
2022-12-31T13:35:51.082Z,25.08
2022-12-31T13:38:21.776Z,23.20
2022-12-31T13:40:55.647Z,26.60
2022-12-31T13:44:05.792Z,27.08
2022-12-31T13:46:47.151Z,26.33
2022-12-31T13:49:21.473Z,23.63
2022-12-31T13:52:18.112Z,25.67
2022-12-31T13:55:04.843Z,23.83
2022-12-31T13:57:52.633Z,22.90
2022-12-31T14:00:31.444Z,22.00
2022-12-31T14:03:24.884Z,21.50
2022-12-31T14:06:00.364Z,22.80
2022-12-31T14:08:28.034Z,25.00
2022-12-31T14:11:09.442Z,26.35
2022-12-31T14:14:13.240Z,27.58
2022-12-31T14:17:20.523Z,22.65
2022-12-31T14:20:02.103Z,26.35
2022-12-31T14:22:38.028Z,26.63
2022-12-31T14:25:22.550Z,22.95
2022-12-31T14:27:52.762Z,25.08
2022-12-31T14:30:25.950Z,28.33
2022-12-31T14:33:30.300Z,28.17
2022-12-31T14:36:21.427Z,23.08
2022-12-31T14:39:20.731Z,23.67
2022-12-31T14:42:06.488Z,28.55
2022-12-31T14:45:05.481Z,30.60
2022-12-31T14:47:47.886Z,22.13
2022-12-31T14:50:21.281Z,27.60
2022-12-31T14:52:51.149Z,29.85
2022-12-31T14:55:29.218Z,29.77
2022-12-31T14:58:27.037Z,30.63
2022-12-31T15:00:59.850Z,28.60
2022-12-31T15:03:47.044Z,29.90
2022-12-31T15:06:23.052Z,27.48
2022-12-31T15:09:38.343Z,29.80
2022-12-31T15:12:07.202Z,29.77
2022-12-31T15:15:02.965Z,27.13
2022-12-31T15:18:14.076Z,29.55
2022-12-31T15:21:01.191Z,29.80
2022-12-31T15:23:47.021Z,23.13
2022-12-31T15:26:24.711Z,22.83
2022-12-31T15:29:21.458Z,29.33
2022-12-31T15:31:50.123Z,26.98
2022-12-31T15:34:39.399Z,22.50
2022-12-31T15:37:26.399Z,25.48
2022-12-31T15:40:09.797Z,31.05
2022-12-31T15:42:58.882Z,29.95
2022-12-31T15:45:37.593Z,23.17
2022-12-31T15:48:14.811Z,31.75
2022-12-31T15:50:49.355Z,23.70
2022-12-31T15:53:28.983Z,31.98
2022-12-31T15:55:58.389Z,27.10
2022-12-31T15:58:35.967Z,34.03
2022-12-31T16:01:13.424Z,23.60
2022-12-31T16:03:46.072Z,32.90
2022-12-31T16:06:15.237Z,28.42
2022-12-31T16:08:46.403Z,31.38
2022-12-31T16:11:13.410Z,36.88
2022-12-31T16:13:44.410Z,33.75
2022-12-31T16:16:28.867Z,34.25
2022-12-31T16:18:58.085Z,38.55
2022-12-31T16:21:36.116Z,38.22
2022-12-31T16:24:25.062Z,38.50
2022-12-31T16:26:59.363Z,38.10
2022-12-31T16:29:31.041Z,38.67
2022-12-31T16:31:58.622Z,36.95
2022-12-31T16:34:29.885Z,37.78
2022-12-31T16:37:02.575Z,37.60
2022-12-31T16:39:45.391Z,38.45
2022-12-31T16:42:20.185Z,37.50
2022-12-31T16:45:33.313Z,38.40
2022-12-31T16:48:17.204Z,38.90
2022-12-31T16:50:54.942Z,29.90
2022-12-31T16:53:30.008Z,39.35
2022-12-31T16:56:09.358Z,28.38
2022-12-31T16:58:44.096Z,38.58
2022-12-31T17:03:47.529Z,34.15
2022-12-31T17:06:20.342Z,39.58
2022-12-31T17:09:00.951Z,37.40
2022-12-31T17:11:33.221Z,36.60
2022-12-31T17:14:09.624Z,39.85
2022-12-31T17:17:03.151Z,40.95
2022-12-31T17:19:39.046Z,27.98
2022-12-31T17:22:36.997Z,39.95
2022-12-31T17:25:07.428Z,40.92
2022-12-31T17:27:39.895Z,40.63
2022-12-31T17:33:13.667Z,38.15
2022-12-31T17:35:45.071Z,42.20
2022-12-31T17:38:28.132Z,32.58
2022-12-31T17:43:40.639Z,33.78
2022-12-31T17:46:16.585Z,33.72
2022-12-31T17:48:49.852Z,44.65
2022-12-31T17:51:24.167Z,32.58
2022-12-31T17:53:51.625Z,46.40
2022-12-31T17:56:19.981Z,32.63
2022-12-31T17:58:51.653Z,46.47
2022-12-31T18:01:21.869Z,46.47
2022-12-31T18:03:51.034Z,34.42
2022-12-31T18:06:19.898Z,47.50
2022-12-31T18:08:49.745Z,47.10
2022-12-31T18:11:22.751Z,47.60
2022-12-31T18:13:50.002Z,46.15
2022-12-31T18:16:17.115Z,47.47
2022-12-31T18:18:45.652Z,47.35
2022-12-31T18:21:43.092Z,46.72
2022-12-31T18:24:24.235Z,43.08
2022-12-31T18:26:52.864Z,45.65
2022-12-31T18:29:20.213Z,46.58
2022-12-31T18:31:49.483Z,44.15
2022-12-31T18:34:27.412Z,44.85
2022-12-31T18:37:02.176Z,42.78
2022-12-31T18:39:29.201Z,43.40
2022-12-31T18:41:58.246Z,41.40
2022-12-31T18:44:27.306Z,39.55
2022-12-31T18:46:54.176Z,39.17
2022-12-31T18:49:24.054Z,36.35
2022-12-31T18:51:54.316Z,38.15
2022-12-31T18:54:21.716Z,39.67
2022-12-31T18:56:53.921Z,38.65
2022-12-31T18:59:26.524Z,39.10
2022-12-31T19:01:58.778Z,36.92
2022-12-31T19:04:28.498Z,36.53
2022-12-31T19:06:59.164Z,40.38
2022-12-31T19:12:16.424Z,43.35
2022-12-31T19:14:49.446Z,40.97
2022-12-31T19:17:19.386Z,30.58
2022-12-31T19:19:46.286Z,43.80
2022-12-31T19:22:16.483Z,41.10
2022-12-31T19:24:45.281Z,40.60
2022-12-31T19:27:17.242Z,47.80
2022-12-31T19:29:45.512Z,41.92
2022-12-31T19:32:12.711Z,38.65
2022-12-31T19:34:53.703Z,40.42
2022-12-31T19:37:20.666Z,41.25
2022-12-31T19:39:49.333Z,43.15
2022-12-31T19:42:17.023Z,43.08
2022-12-31T19:44:46.426Z,41.97
2022-12-31T19:47:15.022Z,41.38
2022-12-31T19:49:41.915Z,42.08
2022-12-31T19:52:08.726Z,43.38
2022-12-31T19:54:37.182Z,44.45
2022-12-31T19:57:29.634Z,44.38
2022-12-31T19:59:58.935Z,36.22
2022-12-31T20:02:31.198Z,33.00
2022-12-31T20:05:01.198Z,43.70
2022-12-31T20:07:37.297Z,34.10
2022-12-31T20:10:08.215Z,42.65
2022-12-31T20:12:42.320Z,45.95
2022-12-31T20:15:12.604Z,46.88
2022-12-31T20:17:46.909Z,35.85
2022-12-31T20:20:14.023Z,41.05
2022-12-31T20:22:50.564Z,40.33
2022-12-31T20:25:17.904Z,42.05
2022-12-31T20:27:47.763Z,40.38
2022-12-31T20:30:16.702Z,40.88
2022-12-31T20:32:52.860Z,41.85
2022-12-31T20:35:20.601Z,42.28
2022-12-31T20:37:51.265Z,44.92
2022-12-31T20:40:18.149Z,40.92
2022-12-31T20:42:44.920Z,40.95
2022-12-31T20:45:12.103Z,41.50
2022-12-31T20:47:44.340Z,41.88
2022-12-31T20:50:12.443Z,42.60
2022-12-31T20:52:41.307Z,44.08
2022-12-31T20:55:13.958Z,41.47
2022-12-31T20:57:44.045Z,41.13
2022-12-31T21:00:16.597Z,44.70
2022-12-31T21:05:40.142Z,34.33
2022-12-31T21:08:07.269Z,42.15
2022-12-31T21:10:36.809Z,34.97
2022-12-31T21:13:06.097Z,43.13
2022-12-31T21:15:34.310Z,33.50
2022-12-31T21:18:01.238Z,35.38
2022-12-31T21:20:28.200Z,44.40
2022-12-31T21:23:01.542Z,44.60
2022-12-31T21:25:28.752Z,45.50
2022-12-31T21:27:55.797Z,46.35
2022-12-31T21:30:29.528Z,46.80
2022-12-31T21:32:56.441Z,47.45
2022-12-31T21:35:48.400Z,47.80
2022-12-31T21:38:15.183Z,46.53
2022-12-31T21:40:42.368Z,46.70
2022-12-31T21:43:12.809Z,46.15
2022-12-31T21:46:01.282Z,35.75
2022-12-31T21:48:28.362Z,45.38
2022-12-31T21:51:10.118Z,45.08
2022-12-31T21:53:37.705Z,47.63
2022-12-31T21:56:12.250Z,48.53
2022-12-31T21:58:47.579Z,49.33
2022-12-31T22:01:38.608Z,50.33
2022-12-31T22:04:07.953Z,47.90
2022-12-31T22:06:46.451Z,49.55
2022-12-31T22:09:13.408Z,62.30
2022-12-31T22:11:42.791Z,64.97
2022-12-31T22:14:15.842Z,51.92
2022-12-31T22:16:46.936Z,54.67
2022-12-31T22:19:17.120Z,54.63
2022-12-31T22:21:44.116Z,56.83
2022-12-31T22:24:13.360Z,55.95
2022-12-31T22:26:46.678Z,56.38
2022-12-31T22:29:13.928Z,57.65
2022-12-31T22:31:44.465Z,58.10
2022-12-31T22:34:11.362Z,60.65
2022-12-31T22:36:38.209Z,63.70
2022-12-31T22:39:05.087Z,64.80
2022-12-31T22:41:32.121Z,66.75
2022-12-31T22:44:04.432Z,65.57
2022-12-31T22:46:36.140Z,62.85
2022-12-31T22:49:07.312Z,65.32
2022-12-31T22:51:56.859Z,64.93
2022-12-31T22:54:31.893Z,62.53
2022-12-31T22:56:58.878Z,62.72
2022-12-31T22:59:25.747Z,62.83
2022-12-31T23:02:16.699Z,64.30
2022-12-31T23:04:49.919Z,69.63
2022-12-31T23:07:19.212Z,68.55
2022-12-31T23:10:04.727Z,78.68
2022-12-31T23:12:31.764Z,81.22
2022-12-31T23:15:17.343Z,83.15
2022-12-31T23:18:07.124Z,84.53
2022-12-31T23:20:52.728Z,90.72
2022-12-31T23:26:02.334Z,122.00
2022-12-31T23:28:29.274Z,173.23
2022-12-31T23:30:56.259Z,168.50
2022-12-31T23:33:26.925Z,166.68
2022-12-31T23:36:12.842Z,168.50
2022-12-31T23:38:39.818Z,164.45
2022-12-31T23:41:14.632Z,175.82
2022-12-31T23:43:47.519Z,177.55
2022-12-31T23:46:16.217Z,173.77
2022-12-31T23:48:43.837Z,174.88
2022-12-31T23:51:16.978Z,173.75
2022-12-31T23:53:43.835Z,168.48
2022-12-31T23:56:23.357Z,158.70
2022-12-31T23:58:55.955Z,158.20
